Terminal Aerodrome Forecast
Issued by NWS Charleston, WV

Current Version | Previous Version | Text Only | Print | Product List | Glossary On
Versions: 1 2 3 4 5 6 7 8 9 10 11 12 13 14 15 16 17 18 19 20 21 22 23 24
000
FTUS41 KRLX 230800 AAA
TAFPKB
TAF AMD
KPKB 230857Z 2309/2406 17005KT P6SM SKC
     FM232100 13009G16KT P6SM BKN080
     FM240000 15010G17KT 5SM -RA BR OVC060
     FM240300 13010G17KT 2SM -RA BR BKN035
     FM240500 16011G16KT 3SM -RA BR BKN025=

USA.gov is the U.S. government's official web portal to all federal, state and local government web resources and services.